Time;durP1;ratioP1;P1;durP2;ratioP2;P2;SDS_P1;SDS_P2;PMS_P1;PMS_P2;Temp;Humidity;BMP_temperature;BMP_pressure;BME280_temperature;BME280_humidity;BME280_pressure;Samples;Min_cycle;Max_cycle;Signal;HPM_P1;HPM_P2
2022/11/13 00:00:29;;;;;;;9.35;4.88;;;;;;;;;;5138035;27;20056;-74
2022/11/13 00:02:55;;;;;;;5.65;4.38;;;;;;;;;;5137439;27;20065;-74
2022/11/13 00:05:21;;;;;;;7.53;4.07;;;;;;;;;;5137796;27;20039;-73
2022/11/13 00:07:47;;;;;;;5.13;4.30;;;;;;;;;;5137625;27;20039;-74
2022/11/13 00:10:13;;;;;;;6.90;4.50;;;;;;;;;;5137770;27;20039;-74
2022/11/13 00:12:39;;;;;;;11.23;4.45;;;;;;;;;;5137243;27;20494;-74
2022/11/13 00:15:06;;;;;;;7.00;4.90;;;;;;;;;;5137477;27;20042;-74
2022/11/13 00:17:32;;;;;;;10.93;7.20;;;;;;;;;;5137381;27;20051;-74
2022/11/13 00:19:58;;;;;;;11.32;7.75;;;;;;;;;;5137313;27;20043;-74
2022/11/13 00:22:24;;;;;;;8.30;5.90;;;;;;;;;;5137365;27;20050;-74
2022/11/13 00:24:50;;;;;;;8.27;4.78;;;;;;;;;;5137202;27;20043;-74
2022/11/13 00:27:16;;;;;;;6.53;4.55;;;;;;;;;;5137300;27;20046;-74
2022/11/13 00:29:42;;;;;;;9.90;4.50;;;;;;;;;;5137674;27;20050;-74
2022/11/13 00:32:09;;;;;;;8.43;6.40;;;;;;;;;;5137191;27;20038;-74
2022/11/13 00:34:35;;;;;;;19.52;13.00;;;;;;;;;;5137183;27;20055;-74
2022/11/13 00:37:01;;;;;;;12.68;9.23;;;;;;;;;;5136883;27;20126;-73
2022/11/13 00:39:27;;;;;;;11.70;8.85;;;;;;;;;;5137820;27;20043;-74
2022/11/13 00:41:53;;;;;;;12.98;6.57;;;;;;;;;;5137235;27;20035;-73
2022/11/13 00:44:19;;;;;;;11.18;6.15;;;;;;;;;;5137422;27;20126;-74
2022/11/13 00:46:45;;;;;;;9.88;5.10;;;;;;;;;;5137165;27;20117;-74
2022/11/13 00:49:12;;;;;;;5.22;4.50;;;;;;;;;;5137163;27;20043;-74
2022/11/13 00:51:38;;;;;;;11.35;6.50;;;;;;;;;;5137095;27;20035;-73
2022/11/13 00:54:04;;;;;;;17.25;12.57;;;;;;;;;;5137284;27;20039;-74
2022/11/13 00:56:30;;;;;;;11.63;8.80;;;;;;;;;;5136835;27;20042;-74
2022/11/13 00:58:56;;;;;;;9.05;6.43;;;;;;;;;;5137482;27;20069;-74
2022/11/13 01:01:22;;;;;;;5.35;4.40;;;;;;;;;;5136861;27;20114;-74
2022/11/13 01:03:49;;;;;;;5.03;3.53;;;;;;;;;;5136562;27;20168;-73
2022/11/13 01:06:19;;;;;;;7.22;4.78;;;;;;;;;;5136527;27;20035;-73
2022/11/13 01:08:45;;;;;;;;;;;;;;;;;;5137306;27;20095;-73
2022/11/13 01:11:13;;;;;;;5.82;4.30;;;;;;;;;;5136573;27;19912;-74
2022/11/13 01:13:40;;;;;;;6.38;4.25;;;;;;;;;;5136654;27;20070;-74
2022/11/13 01:16:07;;;;;;;6.28;4.40;;;;;;;;;;5136334;27;20035;-74
2022/11/13 01:18:33;;;;;;;12.00;7.15;;;;;;;;;;5136772;27;20043;-73
2022/11/13 01:21:04;;;;;;;7.18;6.47;;;;;;;;;;5136258;27;20039;-73
2022/11/13 01:23:30;;;;;;;9.93;5.03;;;;;;;;;;5136765;27;20045;-74
2022/11/13 01:26:03;;;;;;;8.88;4.70;;;;;;;;;;5136355;27;20496;-74
2022/11/13 01:28:29;;;;;;;7.15;4.30;;;;;;;;;;5136444;27;20054;-73
2022/11/13 01:30:55;;;;;;;21.48;17.00;;;;;;;;;;5135407;27;20070;-74
2022/11/13 01:33:21;;;;;;;16.98;12.10;;;;;;;;;;5136335;27;20039;-73
2022/11/13 01:35:47;;;;;;;12.60;8.65;;;;;;;;;;5135643;27;20146;-73
2022/11/13 01:38:13;;;;;;;8.02;6.05;;;;;;;;;;5136128;27;20468;-73
2022/11/13 01:40:46;;;;;;;6.28;5.30;;;;;;;;;;5135331;27;20053;-73
2022/11/13 01:43:29;;;;;;;6.13;4.47;;;;;;;;;;5135579;27;20046;-73
2022/11/13 01:45:58;;;;;;;7.55;4.10;;;;;;;;;;5135629;27;20039;-73
2022/11/13 01:48:28;;;;;;;5.88;3.90;;;;;;;;;;5135917;27;20160;-73
2022/11/13 01:50:54;;;;;;;4.95;3.17;;;;;;;;;;5135848;27;20056;-74
2022/11/13 01:53:20;;;;;;;8.10;4.68;;;;;;;;;;5135962;27;20054;-73
2022/11/13 01:55:47;;;;;;;9.65;4.05;;;;;;;;;;5135201;27;20114;-73
2022/11/13 01:58:14;;;;;;;3.65;3.30;;;;;;;;;;5135590;27;20054;-73
2022/11/13 02:00:40;;;;;;;4.53;3.40;;;;;;;;;;5135745;27;20116;-73
2022/11/13 02:03:06;;;;;;;5.03;3.60;;;;;;;;;;5135303;27;20117;-73
2022/11/13 02:05:33;;;;;;;6.13;3.25;;;;;;;;;;5135903;27;20126;-73
2022/11/13 02:07:59;;;;;;;4.05;3.33;;;;;;;;;;5135558;27;20154;-73
2022/11/13 02:10:26;;;;;;;8.32;3.90;;;;;;;;;;5135198;28;20049;-73
2022/11/13 02:12:52;;;;;;;8.10;3.22;;;;;;;;;;5135213;28;20042;-74
2022/11/13 02:15:22;;;;;;;7.75;3.90;;;;;;;;;;5135386;28;20084;-74
2022/11/13 02:17:51;;;;;;;4.50;3.70;;;;;;;;;;5135985;28;20035;-73
2022/11/13 02:20:23;;;;;;;5.15;3.35;;;;;;;;;;5135330;28;20050;-73
2022/11/13 02:23:04;;;;;;;5.82;3.08;;;;;;;;;;5135478;28;20063;-73
2022/11/13 02:25:31;;;;;;;7.05;3.85;;;;;;;;;;5134934;28;20112;-73
2022/11/13 02:27:58;;;;;;;6.20;4.20;;;;;;;;;;5135363;28;20043;-73
2022/11/13 02:30:25;;;;;;;6.15;3.67;;;;;;;;;;5135526;28;20080;-73
2022/11/13 02:32:53;;;;;;;9.65;3.63;;;;;;;;;;5135066;28;20039;-73
2022/11/13 02:35:24;;;;;;;4.25;3.38;;;;;;;;;;5135485;28;20082;-73
2022/11/13 02:37:50;;;;;;;5.18;3.83;;;;;;;;;;5135832;28;20047;-73
2022/11/13 02:40:17;;;;;;;5.85;3.45;;;;;;;;;;5135140;28;20404;-73
2022/11/13 02:42:43;;;;;;;6.68;3.75;;;;;;;;;;5137562;27;20041;-73
2022/11/13 02:45:09;;;;;;;8.88;4.90;;;;;;;;;;5139562;27;20043;-73
2022/11/13 02:47:35;;;;;;;6.30;3.95;;;;;;;;;;5139254;27;20039;-73
2022/11/13 02:50:02;;;;;;;7.75;3.58;;;;;;;;;;5139553;27;20115;-73
2022/11/13 02:52:29;;;;;;;6.78;3.65;;;;;;;;;;5139443;27;20045;-73
2022/11/13 02:54:55;;;;;;;6.82;3.65;;;;;;;;;;5139552;27;20043;-73
2022/11/13 02:57:22;;;;;;;6.85;3.72;;;;;;;;;;5139823;27;20154;-73
2022/11/13 02:59:48;;;;;;;5.45;3.60;;;;;;;;;;5139621;27;20096;-73
2022/11/13 03:02:14;;;;;;;6.35;3.25;;;;;;;;;;5139542;27;20039;-73
2022/11/13 03:04:40;;;;;;;8.13;5.05;;;;;;;;;;5139065;27;20504;-73
2022/11/13 03:07:06;;;;;;;4.47;3.60;;;;;;;;;;5139153;27;20070;-73
2022/11/13 03:09:32;;;;;;;4.35;3.30;;;;;;;;;;5139403;27;20068;-73
2022/11/13 03:11:58;;;;;;;5.38;2.88;;;;;;;;;;5139073;27;20039;-73
2022/11/13 03:14:24;;;;;;;4.78;3.15;;;;;;;;;;5139222;27;20043;-73
2022/11/13 03:16:51;;;;;;;6.68;3.80;;;;;;;;;;5138863;27;20122;-73
2022/11/13 03:19:17;;;;;;;5.80;3.28;;;;;;;;;;5138872;27;20047;-73
2022/11/13 03:21:43;;;;;;;6.75;3.15;;;;;;;;;;5138864;27;20039;-73
2022/11/13 03:24:09;;;;;;;5.90;2.85;;;;;;;;;;5138816;27;20126;-73
2022/11/13 03:26:35;;;;;;;5.15;2.72;;;;;;;;;;5138647;27;20037;-73
2022/11/13 03:29:01;;;;;;;3.28;2.72;;;;;;;;;;5139057;27;20051;-73
2022/11/13 03:31:27;;;;;;;3.10;2.10;;;;;;;;;;5138959;27;20039;-73
2022/11/13 03:33:53;;;;;;;3.88;2.10;;;;;;;;;;5138591;27;20454;-73
2022/11/13 03:36:19;;;;;;;3.17;2.35;;;;;;;;;;5138332;27;20031;-73
2022/11/13 03:38:46;;;;;;;8.93;2.80;;;;;;;;;;5138234;27;20055;-73
2022/11/13 03:41:13;;;;;;;5.43;2.97;;;;;;;;;;5138045;27;20123;-73
2022/11/13 03:43:40;;;;;;;2.65;2.20;;;;;;;;;;5138113;27;20039;-74
2022/11/13 03:46:06;;;;;;;3.72;2.60;;;;;;;;;;5138077;27;20039;-73
2022/11/13 03:48:32;;;;;;;4.80;2.35;;;;;;;;;;5138049;27;20047;-74
2022/11/13 03:50:59;;;;;;;3.50;2.13;;;;;;;;;;5138019;27;20046;-73
2022/11/13 03:53:25;;;;;;;3.65;2.22;;;;;;;;;;5136700;27;20043;-73
2022/11/13 03:55:51;;;;;;;2.80;1.98;;;;;;;;;;5137298;27;20050;-73
2022/11/13 03:58:17;;;;;;;2.45;1.80;;;;;;;;;;5137985;27;20547;-73
2022/11/13 04:00:44;;;;;;;3.60;2.08;;;;;;;;;;5138026;27;20493;-74
2022/11/13 04:03:11;;;;;;;5.18;3.05;;;;;;;;;;5137756;27;20520;-73
2022/11/13 04:05:37;;;;;;;4.82;2.10;;;;;;;;;;5137699;27;20043;-73
2022/11/13 04:08:04;;;;;;;8.63;2.60;;;;;;;;;;5137390;27;20050;-73
2022/11/13 04:10:30;;;;;;;2.97;2.35;;;;;;;;;;5137353;27;20039;-73
2022/11/13 04:12:56;;;;;;;4.10;2.65;;;;;;;;;;5138169;27;20039;-73
2022/11/13 04:15:23;;;;;;;3.08;2.03;;;;;;;;;;5137469;27;20035;-73
2022/11/13 04:17:49;;;;;;;2.55;2.33;;;;;;;;;;5137716;27;20051;-73
2022/11/13 04:20:15;;;;;;;2.70;1.95;;;;;;;;;;5137338;27;20043;-73
2022/11/13 04:22:42;;;;;;;2.83;2.42;;;;;;;;;;5137313;27;20035;-73
2022/11/13 04:25:08;;;;;;;4.60;2.40;;;;;;;;;;5137353;27;20038;-73
2022/11/13 04:27:35;;;;;;;4.10;2.25;;;;;;;;;;5137326;27;20038;-73
2022/11/13 04:30:01;;;;;;;2.75;2.10;;;;;;;;;;5137343;27;20035;-73
2022/11/13 04:32:28;;;;;;;3.38;2.28;;;;;;;;;;5137193;27;20046;-73
2022/11/13 04:34:54;;;;;;;5.35;2.10;;;;;;;;;;5136617;27;20054;-73
2022/11/13 04:37:20;;;;;;;3.17;2.05;;;;;;;;;;5137321;27;20046;-73
2022/11/13 04:39:46;;;;;;;3.05;1.98;;;;;;;;;;5136973;27;20049;-73
2022/11/13 04:44:56;;;;;;;4.20;2.67;;;;;;;;;;5136438;27;20042;-74
2022/11/13 04:47:23;;;;;;;5.20;2.40;;;;;;;;;;5137449;27;20125;-73
2022/11/13 04:49:49;;;;;;;2.20;1.70;;;;;;;;;;5136375;27;20509;-73
2022/11/13 04:52:15;;;;;;;2.50;2.20;;;;;;;;;;5136802;27;20489;-73
2022/11/13 04:54:41;;;;;;;3.20;2.38;;;;;;;;;;5136567;27;20040;-73
2022/11/13 04:57:07;;;;;;;3.92;2.50;;;;;;;;;;5137207;27;20043;-73
2022/11/13 04:59:33;;;;;;;4.05;2.40;;;;;;;;;;5137148;27;20539;-73
2022/11/13 05:01:59;;;;;;;3.28;2.38;;;;;;;;;;5136587;27;20039;-73
2022/11/13 05:04:26;;;;;;;3.25;2.45;;;;;;;;;;5136883;27;20042;-73
2022/11/13 05:06:52;;;;;;;3.63;2.35;;;;;;;;;;5136452;27;20516;-73
2022/11/13 05:09:18;;;;;;;3.70;2.40;;;;;;;;;;5136786;27;20043;-74
2022/11/13 05:11:44;;;;;;;3.88;2.05;;;;;;;;;;5136240;27;20125;-73
2022/11/13 05:14:13;;;;;;;2.10;1.70;;;;;;;;;;5136079;27;20046;-73
2022/11/13 05:16:40;;;;;;;4.70;2.25;;;;;;;;;;5136300;27;20126;-74
2022/11/13 05:19:06;;;;;;;5.32;2.53;;;;;;;;;;5136530;27;20043;-73
2022/11/13 05:21:34;;;;;;;10.95;9.80;;;;;;;;;;5136508;27;20045;-73
2022/11/13 05:24:00;;;;;;;5.50;4.03;;;;;;;;;;5136261;27;20066;-73
2022/11/13 05:26:27;;;;;;;6.25;3.50;;;;;;;;;;5136553;27;20043;-73
2022/11/13 05:28:55;;;;;;;2.47;2.05;;;;;;;;;;5136754;27;20050;-73
2022/11/13 05:31:22;;;;;;;3.75;2.22;;;;;;;;;;5135753;27;20093;-73
2022/11/13 05:33:48;;;;;;;2.10;1.83;;;;;;;;;;5135813;27;20054;-73
2022/11/13 05:36:15;;;;;;;2.92;1.73;;;;;;;;;;5135718;27;20492;-73
2022/11/13 05:38:42;;;;;;;5.68;1.58;;;;;;;;;;5135838;27;20079;-73
2022/11/13 05:41:09;;;;;;;2.28;1.67;;;;;;;;;;5135756;27;20042;-73
2022/11/13 05:43:35;;;;;;;2.17;1.58;;;;;;;;;;5136156;27;20067;-73
2022/11/13 05:46:11;;;;;;;2.72;1.50;;;;;;;;;;5135846;27;20045;-73
2022/11/13 05:48:37;;;;;;;3.08;1.67;;;;;;;;;;5136382;27;20092;-73
2022/11/13 05:51:08;;;;;;;2.17;1.50;;;;;;;;;;5135492;27;20070;-73
2022/11/13 05:53:34;;;;;;;3.65;2.00;;;;;;;;;;5136035;27;20043;-73
2022/11/13 05:56:11;;;;;;;2.53;1.77;;;;;;;;;;5135259;27;20039;-74
2022/11/13 05:58:37;;;;;;;2.78;1.90;;;;;;;;;;5136195;27;20055;-73
2022/11/13 06:01:18;;;;;;;3.40;2.40;;;;;;;;;;5135351;27;20091;-73
2022/11/13 06:03:44;;;;;;;2.47;2.00;;;;;;;;;;5135669;27;20043;-74
2022/11/13 06:06:12;;;;;;;3.53;1.80;;;;;;;;;;5135555;27;20095;-73
2022/11/13 06:08:38;;;;;;;2.08;1.80;;;;;;;;;;5136085;27;20095;-73
2022/11/13 06:11:06;;;;;;;1.95;1.73;;;;;;;;;;5135109;27;20084;-73
2022/11/13 06:13:32;;;;;;;2.05;1.60;;;;;;;;;;5135930;28;20042;-73
2022/11/13 06:16:06;;;;;;;3.92;1.70;;;;;;;;;;5135554;27;20145;-73
2022/11/13 06:18:33;;;;;;;2.40;1.60;;;;;;;;;;5139510;27;20115;-73
2022/11/13 06:21:03;;;;;;;1.90;1.70;;;;;;;;;;5139431;27;20034;-74
2022/11/13 06:23:29;;;;;;;2.38;1.70;;;;;;;;;;5139443;27;20039;-73
2022/11/13 06:26:09;;;;;;;1.55;1.45;;;;;;;;;;5139487;27;20062;-73
2022/11/13 06:28:35;;;;;;;1.83;1.40;;;;;;;;;;5139618;27;20139;-73
2022/11/13 06:31:02;;;;;;;5.03;1.77;;;;;;;;;;5139565;27;20043;-73
2022/11/13 06:33:29;;;;;;;5.00;3.20;;;;;;;;;;5139229;27;20046;-73
2022/11/13 06:35:55;;;;;;;3.60;2.05;;;;;;;;;;5139604;27;20043;-73
2022/11/13 06:38:21;;;;;;;3.08;1.83;;;;;;;;;;5139941;27;20043;-73
2022/11/13 06:40:47;;;;;;;5.18;1.95;;;;;;;;;;5139699;27;20054;-73
2022/11/13 06:43:13;;;;;;;3.22;2.30;;;;;;;;;;5139635;27;20111;-74
2022/11/13 06:45:39;;;;;;;4.55;2.20;;;;;;;;;;5139668;27;20066;-73
2022/11/13 06:48:05;;;;;;;2.50;2.10;;;;;;;;;;5139579;27;20039;-73
2022/11/13 06:50:31;;;;;;;3.67;1.98;;;;;;;;;;5139142;27;20047;-74
2022/11/13 06:52:57;;;;;;;1.80;1.70;;;;;;;;;;5139241;27;20543;-74
2022/11/13 06:55:23;;;;;;;3.95;1.55;;;;;;;;;;5139382;27;20035;-73
2022/11/13 06:57:50;;;;;;;4.05;2.00;;;;;;;;;;5138997;27;20526;-74
2022/11/13 07:00:16;;;;;;;6.93;2.10;;;;;;;;;;5139457;27;20047;-73
2022/11/13 07:02:42;;;;;;;3.80;1.80;;;;;;;;;;5139212;27;20117;-74
2022/11/13 07:05:08;;;;;;;2.45;1.70;;;;;;;;;;5139341;27;20047;-73
2022/11/13 07:07:34;;;;;;;2.10;1.90;;;;;;;;;;5138866;27;20069;-73
2022/11/13 07:10:00;;;;;;;2.65;1.77;;;;;;;;;;5139323;27;20047;-73
2022/11/13 07:12:27;;;;;;;2.67;1.77;;;;;;;;;;5138357;27;20039;-74
2022/11/13 07:14:53;;;;;;;2.65;1.88;;;;;;;;;;5137998;27;20046;-73
2022/11/13 07:17:20;;;;;;;2.45;1.80;;;;;;;;;;5138641;27;20099;-73
2022/11/13 07:19:46;;;;;;;3.10;1.83;;;;;;;;;;5137913;27;20070;-74
2022/11/13 07:22:12;;;;;;;5.57;2.15;;;;;;;;;;5138401;27;20039;-73
2022/11/13 07:24:38;;;;;;;3.13;1.90;;;;;;;;;;5138770;27;20070;-73
2022/11/13 07:27:04;;;;;;;5.65;1.83;;;;;;;;;;5138208;27;20481;-73
2022/11/13 07:29:30;;;;;;;3.05;1.60;;;;;;;;;;5139350;27;20035;-73
2022/11/13 07:31:56;;;;;;;2.50;1.90;;;;;;;;;;5138723;27;20035;-73
2022/11/13 07:34:22;;;;;;;2.72;2.05;;;;;;;;;;5138236;27;20378;-73
2022/11/13 07:36:48;;;;;;;2.08;1.50;;;;;;;;;;5138053;27;20038;-73
2022/11/13 07:39:15;;;;;;;3.50;1.70;;;;;;;;;;5138135;27;20051;-73
2022/11/13 07:41:41;;;;;;;1.70;1.58;;;;;;;;;;5138077;27;20036;-73
2022/11/13 07:44:07;;;;;;;3.22;1.75;;;;;;;;;;5138707;27;20465;-73
2022/11/13 07:46:33;;;;;;;3.10;2.10;;;;;;;;;;5138323;27;20057;-73
2022/11/13 07:48:59;;;;;;;1.92;1.48;;;;;;;;;;5137308;27;20499;-73
2022/11/13 07:51:25;;;;;;;1.65;1.50;;;;;;;;;;5137722;27;20042;-73
2022/11/13 07:53:51;;;;;;;3.53;1.60;;;;;;;;;;5138469;27;20043;-73
2022/11/13 07:56:17;;;;;;;5.38;2.25;;;;;;;;;;5137745;27;20041;-73
2022/11/13 07:58:43;;;;;;;2.13;1.73;;;;;;;;;;5138092;27;20057;-73
2022/11/13 08:01:10;;;;;;;2.67;1.67;;;;;;;;;;5136840;27;20493;-73
2022/11/13 08:03:36;;;;;;;19.70;12.52;;;;;;;;;;5137022;27;20043;-73
2022/11/13 08:06:06;;;;;;;6.10;3.83;;;;;;;;;;5138214;27;20042;-73
2022/11/13 08:08:33;;;;;;;6.97;4.88;;;;;;;;;;5137622;27;20081;-73
2022/11/13 08:11:02;;;;;;;4.28;2.38;;;;;;;;;;5137169;27;20039;-73
2022/11/13 08:13:28;;;;;;;13.00;6.90;;;;;;;;;;5136899;27;20073;-73
2022/11/13 08:15:54;;;;;;;6.15;4.05;;;;;;;;;;5136779;27;20061;-73
2022/11/13 08:18:20;;;;;;;11.73;7.43;;;;;;;;;;5137426;27;20247;-74
2022/11/13 08:20:46;;;;;;;11.23;6.78;;;;;;;;;;5137241;27;20050;-72
2022/11/13 08:23:13;;;;;;;6.65;4.65;;;;;;;;;;5136807;27;20115;-71
2022/11/13 08:25:39;;;;;;;6.90;4.28;;;;;;;;;;5136861;27;20046;-72
2022/11/13 08:28:05;;;;;;;10.48;5.65;;;;;;;;;;5136408;27;20146;-72
2022/11/13 08:30:32;;;;;;;13.38;6.05;;;;;;;;;;5137193;27;20042;-72
2022/11/13 08:32:58;;;;;;;19.63;8.55;;;;;;;;;;5136473;27;20050;-72
2022/11/13 08:35:24;;;;;;;36.88;15.80;;;;;;;;;;5136767;27;20058;-72
2022/11/13 08:37:50;;;;;;;43.45;19.15;;;;;;;;;;5137558;27;20043;-72
2022/11/13 08:40:16;;;;;;;61.53;27.92;;;;;;;;;;5136343;27;20047;-72
2022/11/13 08:42:42;;;;;;;39.42;18.85;;;;;;;;;;5136634;27;20041;-72
2022/11/13 08:45:08;;;;;;;24.95;11.75;;;;;;;;;;5134924;27;20046;-72
2022/11/13 08:47:35;;;;;;;11.63;6.60;;;;;;;;;;5135181;27;20064;-72
2022/11/13 08:50:01;;;;;;;11.35;6.90;;;;;;;;;;5135984;27;20077;-72
2022/11/13 08:52:27;;;;;;;19.40;10.38;;;;;;;;;;5135721;27;20042;-72
2022/11/13 08:54:54;;;;;;;23.50;12.60;;;;;;;;;;5135776;27;20035;-72
2022/11/13 08:57:20;;;;;;;28.55;13.30;;;;;;;;;;5132749;27;20793;-72
2022/11/13 08:59:46;;;;;;;21.42;11.55;;;;;;;;;;5135715;27;20043;-73
2022/11/13 09:02:14;;;;;;;21.73;11.05;;;;;;;;;;5136323;27;20031;-72
2022/11/13 09:04:40;;;;;;;19.65;9.90;;;;;;;;;;5136036;27;20035;-72
2022/11/13 09:07:06;;;;;;;15.45;9.63;;;;;;;;;;5136430;27;20085;-72
2022/11/13 09:09:33;;;;;;;16.92;8.95;;;;;;;;;;5136800;27;20043;-72
2022/11/13 09:11:59;;;;;;;16.50;9.27;;;;;;;;;;5125685;27;20405;-72
2022/11/13 09:14:26;;;;;;;20.75;10.88;;;;;;;;;;5135102;27;20043;-72
2022/11/13 09:16:53;;;;;;;15.30;9.25;;;;;;;;;;5135127;27;20035;-70
2022/11/13 09:19:19;;;;;;;29.25;17.02;;;;;;;;;;5115261;27;20109;-71
2022/11/13 09:21:46;;;;;;;55.47;28.75;;;;;;;;;;5134192;27;20038;-70
2022/11/13 09:24:13;;;;;;;48.08;25.38;;;;;;;;;;5134951;27;20073;-70
2022/11/13 09:26:39;;;;;;;40.83;23.05;;;;;;;;;;5116816;27;20036;-70
2022/11/13 09:29:05;;;;;;;31.20;17.80;;;;;;;;;;5134674;27;20043;-71
2022/11/13 09:31:32;;;;;;;25.95;15.27;;;;;;;;;;5134745;27;20031;-71
2022/11/13 09:33:58;;;;;;;21.23;10.98;;;;;;;;;;5135422;27;20043;-69
2022/11/13 09:36:24;;;;;;;14.13;9.05;;;;;;;;;;5134836;27;20520;-69
2022/11/13 09:38:50;;;;;;;10.40;6.78;;;;;;;;;;5135768;27;20589;-70
2022/11/13 09:41:19;;;;;;;11.43;7.07;;;;;;;;;;5133660;27;20035;-72
2022/11/13 09:43:48;;;;;;;11.68;6.38;;;;;;;;;;5134649;27;20057;-71
2022/11/13 09:46:20;;;;;;;9.88;6.53;;;;;;;;;;5135070;27;20509;-70
2022/11/13 09:48:50;;;;;;;9.27;6.20;;;;;;;;;;5116512;27;20047;-70
2022/11/13 09:51:21;;;;;;;10.83;6.40;;;;;;;;;;5114779;28;20435;-70
2022/11/13 09:53:48;;;;;;;17.55;11.68;;;;;;;;;;5133807;27;20051;-69
2022/11/13 09:56:32;;;;;;;42.33;27.70;;;;;;;;;;5114828;28;20063;-69
2022/11/13 09:59:07;;;;;;;63.10;47.75;;;;;;;;;;5128880;27;20055;-68
2022/11/13 10:01:40;;;;;;;58.85;41.03;;;;;;;;;;5134617;27;20046;-69
2022/11/13 10:04:08;;;;;;;33.08;23.80;;;;;;;;;;5134732;27;20047;-70
2022/11/13 10:06:40;;;;;;;15.35;10.85;;;;;;;;;;5134947;27;20043;-70
2022/11/13 10:09:21;;;;;;;12.90;9.00;;;;;;;;;;5135582;27;20050;-70
2022/11/13 10:11:55;;;;;;;7.88;6.43;;;;;;;;;;5134126;27;20176;-70
2022/11/13 10:14:25;;;;;;;87.68;66.95;;;;;;;;;;5131308;28;20031;-72
2022/11/13 10:17:01;;;;;;;65.47;51.83;;;;;;;;;;5135278;28;20043;-69
2022/11/13 10:20:06;;;;;;;24.85;19.60;;;;;;;;;;5134502;28;20066;-69
2022/11/13 10:22:35;;;;;;;14.07;9.85;;;;;;;;;;5031697;28;20404;-69
2022/11/13 10:25:18;;;;;;;19.63;15.07;;;;;;;;;;5031485;28;20179;-70
2022/11/13 10:27:48;;;;;;;21.63;13.63;;;;;;;;;;5094976;28;20043;-70
2022/11/13 10:30:15;;;;;;;14.32;9.88;;;;;;;;;;5134866;28;20046;-70
2022/11/13 10:32:43;;;;;;;21.10;14.43;;;;;;;;;;5134338;28;20047;-70
2022/11/13 10:35:18;;;;;;;34.05;23.00;;;;;;;;;;5134847;28;20043;-70
2022/11/13 10:37:44;;;;;;;24.45;17.60;;;;;;;;;;5134921;28;20043;-70
2022/11/13 10:40:11;;;;;;;35.15;20.20;;;;;;;;;;5134580;28;20115;-70
2022/11/13 10:42:39;;;;;;;13.90;8.63;;;;;;;;;;5134346;28;20039;-70
2022/11/13 10:45:13;;;;;;;12.10;7.57;;;;;;;;;;5134206;27;20088;-70
2022/11/13 10:47:43;;;;;;;9.70;6.25;;;;;;;;;;5132441;28;20051;-71
2022/11/13 10:50:10;;;;;;;17.75;11.07;;;;;;;;;;5134346;28;20066;-72
2022/11/13 10:52:47;;;;;;;21.45;13.20;;;;;;;;;;5133884;28;20162;-74
2022/11/13 10:55:28;;;;;;;10.90;7.72;;;;;;;;;;5133975;28;20513;-74
2022/11/13 10:57:55;;;;;;;11.52;9.25;;;;;;;;;;5134794;28;20050;-73
2022/11/13 11:00:26;;;;;;;15.07;11.25;;;;;;;;;;5134504;28;20039;-74
2022/11/13 11:02:52;;;;;;;14.48;10.20;;;;;;;;;;5134751;27;20039;-72
2022/11/13 11:05:21;;;;;;;10.60;7.57;;;;;;;;;;5138076;27;20045;-74
2022/11/13 11:07:48;;;;;;;7.88;5.85;;;;;;;;;;5137220;27;20045;-74
2022/11/13 11:10:22;;;;;;;8.23;6.00;;;;;;;;;;5132520;27;20047;-74
2022/11/13 11:12:54;;;;;;;10.52;7.10;;;;;;;;;;5126889;27;20169;-74
2022/11/13 11:15:22;;;;;;;9.35;6.88;;;;;;;;;;5129137;27;20092;-76
2022/11/13 11:17:52;;;;;;;13.70;7.22;;;;;;;;;;5137918;27;20083;-76
2022/11/13 11:20:19;;;;;;;6.53;5.33;;;;;;;;;;5137652;27;20039;-76
2022/11/13 11:22:46;;;;;;;2.80;2.30;;;;;;;;;;5137665;27;20322;-76
2022/11/13 11:25:15;;;;;;;3.40;3.10;;;;;;;;;;5137647;27;20046;-76
2022/11/13 11:27:44;;;;;;;3.42;2.55;;;;;;;;;;5136465;27;20500;-77
2022/11/13 11:30:18;;;;;;;2.28;1.58;;;;;;;;;;5136593;27;20039;-76
2022/11/13 11:32:57;;;;;;;2.33;1.55;;;;;;;;;;5136942;27;20088;-77
2022/11/13 11:35:32;;;;;;;2.08;1.40;;;;;;;;;;5134834;27;20051;-76
2022/11/13 11:38:11;;;;;;;1.65;1.10;;;;;;;;;;5123668;27;20055;-76
2022/11/13 11:40:42;;;;;;;1.60;1.23;;;;;;;;;;5137916;27;20054;-77
2022/11/13 11:43:13;;;;;;;1.10;0.95;;;;;;;;;;5137430;27;20556;-76
2022/11/13 11:45:41;;;;;;;2.20;1.45;;;;;;;;;;5137017;27;20172;-76
2022/11/13 11:48:15;;;;;;;1.35;1.25;;;;;;;;;;5136452;27;20050;-76
2022/11/13 11:50:45;;;;;;;1.58;0.90;;;;;;;;;;5135575;27;20035;-76
2022/11/13 11:53:16;;;;;;;1.50;1.20;;;;;;;;;;5135447;27;20042;-76
2022/11/13 11:55:48;;;;;;;1.48;1.05;;;;;;;;;;5135642;27;20031;-76
2022/11/13 11:58:32;;;;;;;1.05;0.95;;;;;;;;;;5135012;27;20135;-76
2022/11/13 12:01:10;;;;;;;1.58;1.00;;;;;;;;;;5136769;27;20042;-76
2022/11/13 12:03:36;;;;;;;1.48;1.27;;;;;;;;;;5136936;27;20493;-76
2022/11/13 12:06:05;;;;;;;2.22;1.50;;;;;;;;;;5137222;27;20035;-76
2022/11/13 12:08:35;;;;;;;2.08;1.60;;;;;;;;;;5137321;27;20085;-76
2022/11/13 12:11:23;;;;;;;2.00;1.55;;;;;;;;;;5137018;27;20035;-76
2022/11/13 12:13:56;;;;;;;2.65;2.45;;;;;;;;;;5137415;27;20047;-76
2022/11/13 12:16:25;;;;;;;4.57;3.10;;;;;;;;;;5135980;27;20039;-74
2022/11/13 12:19:01;;;;;;;1.65;1.20;;;;;;;;;;5134732;27;20059;-70
2022/11/13 12:21:29;;;;;;;1.90;1.30;;;;;;;;;;5136092;27;20115;-74
2022/11/13 12:24:14;;;;;;;2.45;1.00;;;;;;;;;;5136746;27;20095;-72
2022/11/13 12:27:02;;;;;;;1.48;1.27;;;;;;;;;;5133554;27;20039;-74
2022/11/13 12:29:29;;;;;;;4.05;2.83;;;;;;;;;;5085121;27;20166;-73
2022/11/13 12:32:19;;;;;;;2.13;1.50;;;;;;;;;;5105688;27;20386;-71
2022/11/13 12:34:55;;;;;;;2.47;1.95;;;;;;;;;;5134590;27;20055;-73
2022/11/13 12:37:27;;;;;;;2.42;1.98;;;;;;;;;;5136025;27;20077;-73
2022/11/13 12:39:58;;;;;;;1.60;1.30;;;;;;;;;;5134498;27;20198;-73
2022/11/13 12:46:08;;;;;;;1.50;1.20;;;;;;;;;;5114964;27;20457;-70
2022/11/13 12:48:35;;;;;;;1.83;1.33;;;;;;;;;;5107823;28;20040;-70
2022/11/13 12:51:03;;;;;;;1.33;1.23;;;;;;;;;;5106133;28;20062;-71
2022/11/13 12:53:30;;;;;;;2.85;2.10;;;;;;;;;;5107091;28;20100;-72
2022/11/13 12:56:02;;;;;;;4.28;2.25;;;;;;;;;;5088177;28;20037;-73
2022/11/13 12:58:32;;;;;;;3.17;1.70;;;;;;;;;;5107345;28;20051;-71
2022/11/13 13:01:06;;;;;;;2.28;1.90;;;;;;;;;;5103570;28;20399;-75
2022/11/13 13:03:32;;;;;;;2.80;1.90;;;;;;;;;;5092458;28;20048;-74
2022/11/13 13:06:13;;;;;;;3.55;1.90;;;;;;;;;;5090767;28;20073;-73
2022/11/13 13:08:39;;;;;;;2.08;1.88;;;;;;;;;;5090148;28;20087;-72
2022/11/13 13:11:31;;;;;;;2.72;1.90;;;;;;;;;;5100520;28;20035;-72
2022/11/13 13:14:16;;;;;;;2.55;1.85;;;;;;;;;;5092309;28;20048;-74
2022/11/13 13:16:42;;;;;;;2.78;2.00;;;;;;;;;;5095077;28;20067;-72
2022/11/13 13:19:27;;;;;;;3.53;2.05;;;;;;;;;;5105670;28;20530;-73
2022/11/13 13:21:54;;;;;;;4.10;2.92;;;;;;;;;;5106800;28;20036;-71
2022/11/13 13:24:36;;;;;;;3.78;2.35;;;;;;;;;;5090479;28;20089;-76
2022/11/13 13:27:20;;;;;;;2.88;2.03;;;;;;;;;;5089401;28;20105;-73
2022/11/13 13:29:46;;;;;;;2.42;1.80;;;;;;;;;;5097304;28;20121;-72
2022/11/13 13:32:15;;;;;;;4.30;2.78;;;;;;;;;;5091128;28;20066;-71
2022/11/13 13:34:53;;;;;;;4.05;2.10;;;;;;;;;;5085802;28;20039;-73
2022/11/13 13:37:23;;;;;;;4.20;2.20;;;;;;;;;;5089496;28;20541;-71
2022/11/13 13:40:08;;;;;;;7.15;5.35;;;;;;;;;;5088701;28;20058;-72
2022/11/13 13:42:50;;;;;;;6.80;2.80;;;;;;;;;;5096709;28;20064;-73
2022/11/13 13:45:23;;;;;;;6.43;2.92;;;;;;;;;;5085134;28;20498;-71
2022/11/13 13:47:51;;;;;;;3.38;3.08;;;;;;;;;;5089559;28;20040;-72
2022/11/13 13:50:20;;;;;;;4.90;2.78;;;;;;;;;;5089936;28;20048;-73
2022/11/13 13:52:46;;;;;;;2.47;2.28;;;;;;;;;;5092043;28;20032;-73
2022/11/13 13:55:17;;;;;;;3.03;2.17;;;;;;;;;;5097288;28;20455;-73
2022/11/13 13:57:44;;;;;;;3.50;2.47;;;;;;;;;;5073972;28;20070;-74
2022/11/13 14:00:14;;;;;;;3.83;2.30;;;;;;;;;;5075525;28;20460;-74
2022/11/13 14:02:49;;;;;;;3.00;1.95;;;;;;;;;;5075264;28;20033;-74
2022/11/13 14:05:24;;;;;;;2.20;1.73;;;;;;;;;;5074126;28;20507;-74
2022/11/13 14:07:51;;;;;;;2.00;1.75;;;;;;;;;;5075746;28;20090;-74
2022/11/13 14:10:19;;;;;;;2.08;1.83;;;;;;;;;;5076705;28;20056;-73
2022/11/13 14:12:46;;;;;;;2.40;1.92;;;;;;;;;;5074575;28;20191;-74
2022/11/13 14:15:31;;;;;;;4.82;2.55;;;;;;;;;;5072403;28;20075;-74
2022/11/13 14:18:08;;;;;;;2.33;2.03;;;;;;;;;;5073176;28;20598;-74
2022/11/13 14:20:41;;;;;;;2.17;1.85;;;;;;;;;;5077213;28;20111;-73
2022/11/13 14:23:10;;;;;;;4.93;2.50;;;;;;;;;;5077134;28;20040;-70
2022/11/13 14:25:37;;;;;;;1.90;1.63;;;;;;;;;;5074520;28;20441;-71
2022/11/13 14:28:04;;;;;;;5.13;3.60;;;;;;;;;;5074723;28;20045;-71
2022/11/13 14:30:30;;;;;;;2.67;2.17;;;;;;;;;;5075072;28;20052;-70
2022/11/13 14:32:58;;;;;;;2.10;1.90;;;;;;;;;;5076521;28;20495;-70
2022/11/13 14:35:26;;;;;;;2.22;1.30;;;;;;;;;;5074464;28;20549;-71
2022/11/13 14:37:54;;;;;;;1.33;1.23;;;;;;;;;;5075403;28;20036;-70
2022/11/13 14:40:21;;;;;;;1.48;1.17;;;;;;;;;;5078988;28;20045;-70
2022/11/13 14:42:51;;;;;;;1.35;1.10;;;;;;;;;;5073177;28;20399;-70
2022/11/13 14:45:17;;;;;;;1.67;1.40;;;;;;;;;;5074013;28;20060;-70
2022/11/13 14:47:44;;;;;;;3.05;1.73;;;;;;;;;;5074390;28;20044;-71
2022/11/13 14:50:19;;;;;;;2.42;1.30;;;;;;;;;;5079340;28;20119;-74
2022/11/13 14:52:55;;;;;;;2.28;1.30;;;;;;;;;;5077863;28;20040;-75